Terminal Aerodrome Forecast
Issued by NWS

Home | Current Version | Previous Version | Text Only | Print | Product List | Glossary On
Versions: 1 2 3 4 5 6 7 8 9 10 11 12
000
FTUS43 KGRR 251700 RRA
TAFLAN
TAF
KLAN 251742Z 2518/2618 08012KT P6SM BKN120
     FM260100 03005KT P6SM SKC
     FM261600 02010KT P6SM BKN050=

USA.gov is the U.S. government's official web portal to all federal, state and local government web resources and services.